MKJS/MBJ METAR and TAF weather

Enter ICAO airport designator
Station Type Date Time Source
MKJS METAR 2022/01/26 08:00 UTC NOAA

MKJS 260800Z 00000KT 9999 FEW022 24/20 Q1014


Station Type Date Time Source
MKJS Decoded METAR 2022/01/26 08:00 UTC NOAA

Montego Bay / Sangster, Jamaica (MKJS) 18-30N 077-55W 8M
Jan 26, 2022 - 03:00 AM EST / 2022.01.26 0800 UTC
Wind: Calm:0
Visibility: greater than 7 mile(s):0
Sky conditions: mostly clear
Temperature: 75 F (24 C)
Dew Point: 68 F (20 C)
Relative Humidity: 78%
Pressure (altimeter): 29.94 in. Hg (1014 hPa)
ob: MKJS 260800Z 00000KT 9999 FEW022 24/20 Q1014
cycle: 8

Station Type Date Time Source
MKJS TAF 2022/01/26 06:33 UTC NOAA

TAF MKJS 260515Z 2606/2706 VR02KT 9999 FEW022 SCT034
BECMG 2614/2616 06015KT
BECMG 2701/2703 15005KT FEW020

Example: see airport list